sensor_id;sensor_type;location;lat;lon;timestamp;P1;durP1;ratioP1;P2;durP2;ratioP2
16862;SDS011;52193;48.216;-1.698;2023-04-02T00:01:23;5.50;;;3.65;;
16862;SDS011;52193;48.216;-1.698;2023-04-02T00:04:04;6.05;;;3.83;;
16862;SDS011;52193;48.216;-1.698;2023-04-02T00:06:38;4.70;;;3.63;;
16862;SDS011;52193;48.216;-1.698;2023-04-02T00:09:22;4.85;;;4.13;;
16862;SDS011;52193;48.216;-1.698;2023-04-02T00:11:53;4.07;;;3.70;;
16862;SDS011;52193;48.216;-1.698;2023-04-02T00:14:23;6.88;;;4.30;;
16862;SDS011;52193;48.216;-1.698;2023-04-02T00:16:53;7.63;;;6.03;;
16862;SDS011;52193;48.216;-1.698;2023-04-02T00:19:24;7.32;;;6.10;;
16862;SDS011;52193;48.216;-1.698;2023-04-02T00:21:56;7.30;;;6.60;;
16862;SDS011;52193;48.216;-1.698;2023-04-02T00:24:25;6.85;;;5.90;;
16862;SDS011;52193;48.216;-1.698;2023-04-02T00:26:52;8.23;;;6.00;;
16862;SDS011;52193;48.216;-1.698;2023-04-02T00:29:20;8.48;;;6.10;;
16862;SDS011;52193;48.216;-1.698;2023-04-02T00:31:49;7.97;;;6.30;;
16862;SDS011;52193;48.216;-1.698;2023-04-02T00:34:18;7.50;;;6.07;;
16862;SDS011;52193;48.216;-1.698;2023-04-02T00:36:47;7.40;;;5.83;;
16862;SDS011;52193;48.216;-1.698;2023-04-02T00:39:17;8.93;;;6.25;;
16862;SDS011;52193;48.216;-1.698;2023-04-02T00:41:45;6.60;;;5.93;;
16862;SDS011;52193;48.216;-1.698;2023-04-02T00:44:13;8.02;;;6.30;;
16862;SDS011;52193;48.216;-1.698;2023-04-02T00:46:47;7.07;;;6.07;;
16862;SDS011;52193;48.216;-1.698;2023-04-02T00:49:20;7.53;;;5.78;;
16862;SDS011;52193;48.216;-1.698;2023-04-02T00:51:52;8.03;;;6.20;;
16862;SDS011;52193;48.216;-1.698;2023-04-02T00:54:22;7.80;;;5.80;;
16862;SDS011;52193;48.216;-1.698;2023-04-02T00:56:54;6.90;;;5.85;;
16862;SDS011;52193;48.216;-1.698;2023-04-02T00:59:24;7.95;;;5.75;;
16862;SDS011;52193;48.216;-1.698;2023-04-02T01:01:55;5.63;;;5.13;;
16862;SDS011;52193;48.216;-1.698;2023-04-02T01:04:29;7.22;;;5.82;;
16862;SDS011;52193;48.216;-1.698;2023-04-02T01:06:59;6.25;;;5.28;;
16862;SDS011;52193;48.216;-1.698;2023-04-02T01:09:34;6.07;;;5.45;;
16862;SDS011;52193;48.216;-1.698;2023-04-02T01:12:19;6.88;;;5.35;;
16862;SDS011;52193;48.216;-1.698;2023-04-02T01:14:59;5.80;;;5.20;;
16862;SDS011;52193;48.216;-1.698;2023-04-02T01:17:41;6.60;;;5.50;;
16862;SDS011;52193;48.216;-1.698;2023-04-02T01:23:13;6.50;;;5.10;;
16862;SDS011;52193;48.216;-1.698;2023-04-02T01:25:47;7.25;;;5.00;;
16862;SDS011;52193;48.216;-1.698;2023-04-02T01:28:21;5.50;;;4.78;;
16862;SDS011;52193;48.216;-1.698;2023-04-02T01:30:55;7.15;;;5.50;;
16862;SDS011;52193;48.216;-1.698;2023-04-02T01:33:27;6.13;;;4.80;;
16862;SDS011;52193;48.216;-1.698;2023-04-02T01:35:56;5.90;;;4.75;;
16862;SDS011;52193;48.216;-1.698;2023-04-02T01:38:31;7.07;;;5.15;;
16862;SDS011;52193;48.216;-1.698;2023-04-02T01:41:04;6.88;;;5.18;;
16862;SDS011;52193;48.216;-1.698;2023-04-02T01:43:38;5.73;;;5.00;;
16862;SDS011;52193;48.216;-1.698;2023-04-02T01:46:25;5.97;;;4.88;;
16862;SDS011;52193;48.216;-1.698;2023-04-02T01:48:54;5.97;;;4.70;;
16862;SDS011;52193;48.216;-1.698;2023-04-02T01:51:24;6.75;;;5.00;;
16862;SDS011;52193;48.216;-1.698;2023-04-02T01:53:53;5.05;;;4.15;;
16862;SDS011;52193;48.216;-1.698;2023-04-02T01:56:23;6.38;;;4.72;;
16862;SDS011;52193;48.216;-1.698;2023-04-02T01:58:52;5.47;;;4.60;;
16862;SDS011;52193;48.216;-1.698;2023-04-02T02:01:19;6.55;;;4.55;;
16862;SDS011;52193;48.216;-1.698;2023-04-02T02:03:52;5.10;;;4.60;;
16862;SDS011;52193;48.216;-1.698;2023-04-02T02:06:20;6.80;;;4.90;;
16862;SDS011;52193;48.216;-1.698;2023-04-02T02:08:49;7.65;;;5.07;;
16862;SDS011;52193;48.216;-1.698;2023-04-02T02:11:19;7.07;;;4.63;;
16862;SDS011;52193;48.216;-1.698;2023-04-02T02:13:49;8.00;;;5.18;;
16862;SDS011;52193;48.216;-1.698;2023-04-02T02:16:18;7.82;;;5.00;;
16862;SDS011;52193;48.216;-1.698;2023-04-02T02:18:47;8.88;;;5.55;;
16862;SDS011;52193;48.216;-1.698;2023-04-02T02:21:20;7.22;;;5.30;;
16862;SDS011;52193;48.216;-1.698;2023-04-02T02:23:55;6.97;;;5.20;;
16862;SDS011;52193;48.216;-1.698;2023-04-02T02:26:22;5.90;;;4.75;;
16862;SDS011;52193;48.216;-1.698;2023-04-02T02:28:51;7.78;;;5.13;;
16862;SDS011;52193;48.216;-1.698;2023-04-02T02:31:21;7.55;;;5.20;;
16862;SDS011;52193;48.216;-1.698;2023-04-02T02:33:55;8.70;;;5.13;;
16862;SDS011;52193;48.216;-1.698;2023-04-02T02:36:30;7.35;;;4.95;;
16862;SDS011;52193;48.216;-1.698;2023-04-02T02:39:04;8.23;;;5.15;;
16862;SDS011;52193;48.216;-1.698;2023-04-02T02:41:40;8.33;;;4.90;;
16862;SDS011;52193;48.216;-1.698;2023-04-02T02:44:11;7.55;;;5.05;;
16862;SDS011;52193;48.216;-1.698;2023-04-02T02:46:43;5.68;;;4.82;;
16862;SDS011;52193;48.216;-1.698;2023-04-02T02:49:13;7.63;;;4.85;;
16862;SDS011;52193;48.216;-1.698;2023-04-02T02:51:45;6.28;;;4.50;;
16862;SDS011;52193;48.216;-1.698;2023-04-02T02:54:16;6.15;;;4.22;;
16862;SDS011;52193;48.216;-1.698;2023-04-02T02:56:44;7.23;;;4.47;;
16862;SDS011;52193;48.216;-1.698;2023-04-02T02:59:17;7.30;;;4.32;;
16862;SDS011;52193;48.216;-1.698;2023-04-02T03:01:45;7.43;;;4.50;;
16862;SDS011;52193;48.216;-1.698;2023-04-02T03:04:12;7.22;;;4.18;;
16862;SDS011;52193;48.216;-1.698;2023-04-02T03:06:46;5.70;;;4.10;;
16862;SDS011;52193;48.216;-1.698;2023-04-02T03:09:15;7.63;;;4.25;;
16862;SDS011;52193;48.216;-1.698;2023-04-02T03:11:49;6.35;;;4.22;;
16862;SDS011;52193;48.216;-1.698;2023-04-02T03:14:22;6.07;;;4.45;;
16862;SDS011;52193;48.216;-1.698;2023-04-02T03:16:56;6.32;;;4.03;;
16862;SDS011;52193;48.216;-1.698;2023-04-02T03:19:28;5.73;;;4.10;;
16862;SDS011;52193;48.216;-1.698;2023-04-02T03:22:03;5.78;;;4.18;;
16862;SDS011;52193;48.216;-1.698;2023-04-02T03:24:34;7.93;;;4.28;;
16862;SDS011;52193;48.216;-1.698;2023-04-02T03:27:04;6.70;;;4.28;;
16862;SDS011;52193;48.216;-1.698;2023-04-02T03:29:37;5.93;;;3.90;;
16862;SDS011;52193;48.216;-1.698;2023-04-02T03:32:10;7.53;;;4.13;;
16862;SDS011;52193;48.216;-1.698;2023-04-02T03:34:43;7.05;;;4.40;;
16862;SDS011;52193;48.216;-1.698;2023-04-02T03:37:16;5.32;;;3.72;;
16862;SDS011;52193;48.216;-1.698;2023-04-02T03:39:48;5.28;;;4.00;;
16862;SDS011;52193;48.216;-1.698;2023-04-02T03:42:21;6.53;;;3.85;;
16862;SDS011;52193;48.216;-1.698;2023-04-02T03:44:51;6.63;;;4.20;;
16862;SDS011;52193;48.216;-1.698;2023-04-02T03:47:23;7.95;;;4.30;;
16862;SDS011;52193;48.216;-1.698;2023-04-02T03:49:58;6.22;;;4.03;;
16862;SDS011;52193;48.216;-1.698;2023-04-02T03:52:30;6.30;;;4.10;;
16862;SDS011;52193;48.216;-1.698;2023-04-02T03:54:59;5.75;;;3.75;;
16862;SDS011;52193;48.216;-1.698;2023-04-02T03:57:35;6.95;;;3.53;;
16862;SDS011;52193;48.216;-1.698;2023-04-02T04:00:09;5.05;;;3.60;;
16862;SDS011;52193;48.216;-1.698;2023-04-02T04:02:43;7.45;;;4.13;;
16862;SDS011;52193;48.216;-1.698;2023-04-02T04:05:22;8.48;;;4.00;;
16862;SDS011;52193;48.216;-1.698;2023-04-02T04:07:54;9.98;;;4.47;;
16862;SDS011;52193;48.216;-1.698;2023-04-02T04:10:26;5.93;;;4.20;;
16862;SDS011;52193;48.216;-1.698;2023-04-02T04:12:54;9.05;;;4.03;;
16862;SDS011;52193;48.216;-1.698;2023-04-02T04:15:28;5.22;;;3.88;;
16862;SDS011;52193;48.216;-1.698;2023-04-02T04:17:58;4.63;;;3.38;;
16862;SDS011;52193;48.216;-1.698;2023-04-02T04:20:30;6.73;;;3.97;;
16862;SDS011;52193;48.216;-1.698;2023-04-02T04:23:10;7.57;;;4.22;;
16862;SDS011;52193;48.216;-1.698;2023-04-02T04:25:44;6.70;;;4.00;;
16862;SDS011;52193;48.216;-1.698;2023-04-02T04:28:18;8.25;;;4.20;;
16862;SDS011;52193;48.216;-1.698;2023-04-02T04:30:51;5.07;;;3.87;;
16862;SDS011;52193;48.216;-1.698;2023-04-02T04:33:24;5.55;;;3.70;;
16862;SDS011;52193;48.216;-1.698;2023-04-02T04:35:58;6.85;;;4.07;;
16862;SDS011;52193;48.216;-1.698;2023-04-02T04:38:29;6.43;;;3.78;;
16862;SDS011;52193;48.216;-1.698;2023-04-02T04:41:00;7.43;;;4.00;;
16862;SDS011;52193;48.216;-1.698;2023-04-02T04:43:32;5.73;;;3.70;;
16862;SDS011;52193;48.216;-1.698;2023-04-02T04:46:08;6.47;;;3.80;;
16862;SDS011;52193;48.216;-1.698;2023-04-02T04:48:40;6.57;;;3.70;;
16862;SDS011;52193;48.216;-1.698;2023-04-02T04:51:16;6.35;;;3.88;;
16862;SDS011;52193;48.216;-1.698;2023-04-02T04:53:48;5.72;;;3.70;;
16862;SDS011;52193;48.216;-1.698;2023-04-02T04:56:20;6.40;;;3.63;;
16862;SDS011;52193;48.216;-1.698;2023-04-02T04:58:50;6.03;;;4.00;;
16862;SDS011;52193;48.216;-1.698;2023-04-02T05:01:22;7.63;;;4.10;;
16862;SDS011;52193;48.216;-1.698;2023-04-02T05:03:53;4.75;;;3.88;;
16862;SDS011;52193;48.216;-1.698;2023-04-02T05:06:30;6.55;;;4.38;;
16862;SDS011;52193;48.216;-1.698;2023-04-02T05:09:02;4.97;;;3.72;;
16862;SDS011;52193;48.216;-1.698;2023-04-02T05:11:35;7.57;;;4.18;;
16862;SDS011;52193;48.216;-1.698;2023-04-02T05:14:05;7.10;;;4.43;;
16862;SDS011;52193;48.216;-1.698;2023-04-02T05:16:38;7.32;;;4.20;;
16862;SDS011;52193;48.216;-1.698;2023-04-02T05:19:11;8.13;;;4.03;;
16862;SDS011;52193;48.216;-1.698;2023-04-02T05:21:42;5.40;;;3.80;;
16862;SDS011;52193;48.216;-1.698;2023-04-02T05:24:34;7.03;;;3.78;;
16862;SDS011;52193;48.216;-1.698;2023-04-02T05:27:12;6.13;;;3.60;;
16862;SDS011;52193;48.216;-1.698;2023-04-02T05:29:46;5.00;;;3.40;;
16862;SDS011;52193;48.216;-1.698;2023-04-02T05:32:19;4.57;;;3.08;;
16862;SDS011;52193;48.216;-1.698;2023-04-02T05:34:51;3.75;;;3.00;;
16862;SDS011;52193;48.216;-1.698;2023-04-02T05:37:20;4.07;;;3.05;;
16862;SDS011;52193;48.216;-1.698;2023-04-02T05:39:52;4.32;;;2.78;;
16862;SDS011;52193;48.216;-1.698;2023-04-02T05:42:21;3.05;;;2.55;;
16862;SDS011;52193;48.216;-1.698;2023-04-02T05:44:54;3.30;;;2.60;;
16862;SDS011;52193;48.216;-1.698;2023-04-02T05:47:28;4.85;;;2.60;;
16862;SDS011;52193;48.216;-1.698;2023-04-02T05:50:00;3.60;;;2.80;;
16862;SDS011;52193;48.216;-1.698;2023-04-02T05:52:39;3.15;;;2.50;;
16862;SDS011;52193;48.216;-1.698;2023-04-02T05:55:23;3.25;;;2.50;;
16862;SDS011;52193;48.216;-1.698;2023-04-02T05:58:13;2.63;;;2.37;;
16862;SDS011;52193;48.216;-1.698;2023-04-02T06:00:53;2.22;;;2.00;;
16862;SDS011;52193;48.216;-1.698;2023-04-02T06:03:27;2.42;;;2.13;;
16862;SDS011;52193;48.216;-1.698;2023-04-02T06:06:04;2.40;;;2.20;;
16862;SDS011;52193;48.216;-1.698;2023-04-02T06:08:38;2.20;;;1.95;;
16862;SDS011;52193;48.216;-1.698;2023-04-02T06:11:12;3.35;;;2.20;;
16862;SDS011;52193;48.216;-1.698;2023-04-02T06:13:43;2.13;;;1.92;;
16862;SDS011;52193;48.216;-1.698;2023-04-02T06:16:10;2.85;;;2.20;;
16862;SDS011;52193;48.216;-1.698;2023-04-02T06:18:39;2.00;;;1.90;;
16862;SDS011;52193;48.216;-1.698;2023-04-02T06:21:09;2.65;;;2.30;;
16862;SDS011;52193;48.216;-1.698;2023-04-02T06:23:39;2.20;;;2.00;;
16862;SDS011;52193;48.216;-1.698;2023-04-02T06:26:10;2.30;;;2.10;;
16862;SDS011;52193;48.216;-1.698;2023-04-02T06:28:43;2.72;;;2.20;;
16862;SDS011;52193;48.216;-1.698;2023-04-02T06:31:19;3.20;;;2.47;;
16862;SDS011;52193;48.216;-1.698;2023-04-02T06:33:50;2.75;;;2.30;;
16862;SDS011;52193;48.216;-1.698;2023-04-02T06:36:19;3.85;;;2.30;;
16862;SDS011;52193;48.216;-1.698;2023-04-02T06:38:46;2.20;;;2.00;;
16862;SDS011;52193;48.216;-1.698;2023-04-02T06:41:16;2.63;;;2.20;;
16862;SDS011;52193;48.216;-1.698;2023-04-02T06:43:46;2.75;;;2.22;;
16862;SDS011;52193;48.216;-1.698;2023-04-02T06:46:19;3.40;;;2.20;;
16862;SDS011;52193;48.216;-1.698;2023-04-02T06:48:51;2.30;;;2.10;;
16862;SDS011;52193;48.216;-1.698;2023-04-02T06:51:25;2.75;;;2.10;;
16862;SDS011;52193;48.216;-1.698;2023-04-02T06:53:54;2.55;;;2.10;;
16862;SDS011;52193;48.216;-1.698;2023-04-02T06:56:25;4.77;;;2.43;;
16862;SDS011;52193;48.216;-1.698;2023-04-02T06:59:03;3.67;;;2.20;;
16862;SDS011;52193;48.216;-1.698;2023-04-02T07:01:32;2.93;;;2.10;;
16862;SDS011;52193;48.216;-1.698;2023-04-02T07:04:02;3.15;;;2.40;;
16862;SDS011;52193;48.216;-1.698;2023-04-02T07:06:29;3.13;;;2.20;;
16862;SDS011;52193;48.216;-1.698;2023-04-02T07:08:56;3.50;;;2.47;;
16862;SDS011;52193;48.216;-1.698;2023-04-02T07:11:25;2.90;;;2.10;;
16862;SDS011;52193;48.216;-1.698;2023-04-02T07:13:52;3.33;;;2.30;;
16862;SDS011;52193;48.216;-1.698;2023-04-02T07:16:19;3.78;;;2.38;;
16862;SDS011;52193;48.216;-1.698;2023-04-02T07:18:49;2.85;;;2.13;;
16862;SDS011;52193;48.216;-1.698;2023-04-02T07:21:16;3.10;;;2.20;;
16862;SDS011;52193;48.216;-1.698;2023-04-02T07:23:43;3.97;;;2.63;;
16862;SDS011;52193;48.216;-1.698;2023-04-02T07:26:12;3.83;;;2.43;;
16862;SDS011;52193;48.216;-1.698;2023-04-02T07:28:41;3.30;;;2.45;;
16862;SDS011;52193;48.216;-1.698;2023-04-02T07:31:12;2.92;;;2.42;;
16862;SDS011;52193;48.216;-1.698;2023-04-02T07:33:42;2.85;;;2.30;;
16862;SDS011;52193;48.216;-1.698;2023-04-02T07:36:11;2.50;;;2.30;;
16862;SDS011;52193;48.216;-1.698;2023-04-02T07:38:40;2.40;;;2.20;;
16862;SDS011;52193;48.216;-1.698;2023-04-02T07:41:07;3.35;;;2.47;;
16862;SDS011;52193;48.216;-1.698;2023-04-02T07:43:34;3.13;;;2.35;;
16862;SDS011;52193;48.216;-1.698;2023-04-02T07:46:02;3.47;;;2.58;;
16862;SDS011;52193;48.216;-1.698;2023-04-02T07:48:29;3.10;;;2.60;;
16862;SDS011;52193;48.216;-1.698;2023-04-02T07:50:57;3.58;;;2.67;;
16862;SDS011;52193;48.216;-1.698;2023-04-02T07:53:25;4.07;;;2.67;;
16862;SDS011;52193;48.216;-1.698;2023-04-02T07:55:54;2.80;;;2.47;;
16862;SDS011;52193;48.216;-1.698;2023-04-02T07:58:22;3.05;;;2.30;;
16862;SDS011;52193;48.216;-1.698;2023-04-02T08:00:49;2.53;;;2.27;;
16862;SDS011;52193;48.216;-1.698;2023-04-02T08:03:18;2.50;;;2.30;;
16862;SDS011;52193;48.216;-1.698;2023-04-02T08:05:48;3.22;;;2.30;;
16862;SDS011;52193;48.216;-1.698;2023-04-02T08:08:16;2.53;;;2.33;;
16862;SDS011;52193;48.216;-1.698;2023-04-02T08:10:43;4.00;;;2.58;;
16862;SDS011;52193;48.216;-1.698;2023-04-02T08:13:10;3.25;;;2.40;;
16862;SDS011;52193;48.216;-1.698;2023-04-02T08:15:37;3.00;;;2.30;;
16862;SDS011;52193;48.216;-1.698;2023-04-02T08:18:04;3.80;;;2.40;;
16862;SDS011;52193;48.216;-1.698;2023-04-02T08:20:32;4.05;;;2.50;;
16862;SDS011;52193;48.216;-1.698;2023-04-02T08:22:59;3.05;;;2.35;;
16862;SDS011;52193;48.216;-1.698;2023-04-02T08:25:27;3.88;;;2.20;;
16862;SDS011;52193;48.216;-1.698;2023-04-02T08:27:54;3.40;;;2.47;;
16862;SDS011;52193;48.216;-1.698;2023-04-02T08:30:21;3.53;;;2.45;;
16862;SDS011;52193;48.216;-1.698;2023-04-02T08:32:48;3.67;;;2.60;;
16862;SDS011;52193;48.216;-1.698;2023-04-02T08:35:15;3.90;;;2.47;;
16862;SDS011;52193;48.216;-1.698;2023-04-02T08:37:44;2.63;;;2.20;;
16862;SDS011;52193;48.216;-1.698;2023-04-02T08:40:17;3.80;;;2.50;;
16862;SDS011;52193;48.216;-1.698;2023-04-02T08:42:51;3.08;;;2.47;;
16862;SDS011;52193;48.216;-1.698;2023-04-02T08:45:41;2.28;;;2.00;;
16862;SDS011;52193;48.216;-1.698;2023-04-02T08:48:14;2.83;;;2.17;;
16862;SDS011;52193;48.216;-1.698;2023-04-02T08:50:42;3.97;;;2.42;;
16862;SDS011;52193;48.216;-1.698;2023-04-02T08:53:12;4.22;;;2.30;;
16862;SDS011;52193;48.216;-1.698;2023-04-02T08:55:44;2.75;;;2.13;;
16862;SDS011;52193;48.216;-1.698;2023-04-02T08:58:22;4.20;;;2.25;;
16862;SDS011;52193;48.216;-1.698;2023-04-02T09:00:56;3.83;;;2.40;;
16862;SDS011;52193;48.216;-1.698;2023-04-02T09:03:27;2.53;;;2.20;;
16862;SDS011;52193;48.216;-1.698;2023-04-02T09:05:57;2.47;;;2.28;;
16862;SDS011;52193;48.216;-1.698;2023-04-02T09:08:28;3.40;;;2.47;;
16862;SDS011;52193;48.216;-1.698;2023-04-02T09:10:58;2.60;;;2.40;;
16862;SDS011;52193;48.216;-1.698;2023-04-02T09:13:30;3.28;;;2.50;;
16862;SDS011;52193;48.216;-1.698;2023-04-02T09:16:02;3.40;;;2.40;;
16862;SDS011;52193;48.216;-1.698;2023-04-02T09:18:34;2.70;;;2.28;;
16862;SDS011;52193;48.216;-1.698;2023-04-02T09:21:06;4.22;;;2.80;;
16862;SDS011;52193;48.216;-1.698;2023-04-02T09:23:49;3.80;;;2.60;;
16862;SDS011;52193;48.216;-1.698;2023-04-02T09:26:18;3.15;;;2.33;;
16862;SDS011;52193;48.216;-1.698;2023-04-02T09:28:47;3.33;;;2.28;;
16862;SDS011;52193;48.216;-1.698;2023-04-02T09:31:15;2.80;;;2.42;;
16862;SDS011;52193;48.216;-1.698;2023-04-02T09:33:47;3.35;;;2.47;;
16862;SDS011;52193;48.216;-1.698;2023-04-02T09:36:18;3.60;;;2.63;;
16862;SDS011;52193;48.216;-1.698;2023-04-02T09:38:58;3.00;;;2.43;;
16862;SDS011;52193;48.216;-1.698;2023-04-02T09:41:31;2.50;;;2.20;;
16862;SDS011;52193;48.216;-1.698;2023-04-02T09:44:10;3.50;;;2.65;;
16862;SDS011;52193;48.216;-1.698;2023-04-02T09:46:51;3.67;;;2.55;;
16862;SDS011;52193;48.216;-1.698;2023-04-02T09:49:22;2.65;;;2.35;;
16862;SDS011;52193;48.216;-1.698;2023-04-02T09:52:07;2.55;;;2.30;;
16862;SDS011;52193;48.216;-1.698;2023-04-02T09:54:44;3.42;;;2.40;;
16862;SDS011;52193;48.216;-1.698;2023-04-02T09:57:18;3.47;;;2.37;;
16862;SDS011;52193;48.216;-1.698;2023-04-02T10:00:07;3.30;;;2.50;;
16862;SDS011;52193;48.216;-1.698;2023-04-02T10:02:36;3.95;;;2.40;;
16862;SDS011;52193;48.216;-1.698;2023-04-02T10:05:04;2.40;;;2.20;;
16862;SDS011;52193;48.216;-1.698;2023-04-02T10:07:38;2.15;;;1.95;;
16862;SDS011;52193;48.216;-1.698;2023-04-02T10:10:16;2.17;;;1.73;;
16862;SDS011;52193;48.216;-1.698;2023-04-02T10:12:46;1.85;;;1.75;;
16862;SDS011;52193;48.216;-1.698;2023-04-02T10:15:19;2.70;;;2.00;;
16862;SDS011;52193;48.216;-1.698;2023-04-02T10:17:50;3.00;;;2.60;;
16862;SDS011;52193;48.216;-1.698;2023-04-02T10:20:23;2.83;;;2.22;;
16862;SDS011;52193;48.216;-1.698;2023-04-02T10:22:53;4.32;;;2.35;;
16862;SDS011;52193;48.216;-1.698;2023-04-02T10:25:23;3.42;;;2.20;;
16862;SDS011;52193;48.216;-1.698;2023-04-02T10:27:54;3.35;;;2.03;;
16862;SDS011;52193;48.216;-1.698;2023-04-02T10:30:26;3.67;;;2.42;;
16862;SDS011;52193;48.216;-1.698;2023-04-02T10:33:10;3.40;;;2.47;;
16862;SDS011;52193;48.216;-1.698;2023-04-02T10:35:46;2.72;;;1.98;;
16862;SDS011;52193;48.216;-1.698;2023-04-02T10:38:37;6.35;;;5.78;;
16862;SDS011;52193;48.216;-1.698;2023-04-02T10:46:55;4.60;;;3.63;;
16862;SDS011;52193;48.216;-1.698;2023-04-02T10:49:40;25.52;;;23.00;;
16862;SDS011;52193;48.216;-1.698;2023-04-02T10:52:14;15.43;;;13.97;;
16862;SDS011;52193;48.216;-1.698;2023-04-02T10:54:47;10.55;;;9.75;;
16862;SDS011;52193;48.216;-1.698;2023-04-02T10:57:21;4.30;;;3.90;;
16862;SDS011;52193;48.216;-1.698;2023-04-02T11:00:02;3.77;;;3.47;;
16862;SDS011;52193;48.216;-1.698;2023-04-02T11:02:41;6.78;;;6.28;;
16862;SDS011;52193;48.216;-1.698;2023-04-02T11:05:13;6.50;;;6.03;;
16862;SDS011;52193;48.216;-1.698;2023-04-02T11:07:48;4.37;;;4.07;;
16862;SDS011;52193;48.216;-1.698;2023-04-02T11:10:20;4.05;;;3.65;;
16862;SDS011;52193;48.216;-1.698;2023-04-02T11:12:50;2.85;;;2.45;;
16862;SDS011;52193;48.216;-1.698;2023-04-02T11:15:21;2.10;;;2.00;;
16862;SDS011;52193;48.216;-1.698;2023-04-02T11:17:49;2.00;;;1.90;;
16862;SDS011;52193;48.216;-1.698;2023-04-02T11:23:32;7.13;;;6.63;;
16862;SDS011;52193;48.216;-1.698;2023-04-02T11:29:13;4.30;;;4.00;;
16862;SDS011;52193;48.216;-1.698;2023-04-02T11:31:43;6.47;;;5.88;;
16862;SDS011;52193;48.216;-1.698;2023-04-02T11:34:11;3.65;;;3.30;;
16862;SDS011;52193;48.216;-1.698;2023-04-02T11:36:59;5.85;;;5.45;;
16862;SDS011;52193;48.216;-1.698;2023-04-02T11:39:44;2.85;;;2.65;;
16862;SDS011;52193;48.216;-1.698;2023-04-02T11:42:21;1.92;;;1.83;;
16862;SDS011;52193;48.216;-1.698;2023-04-02T11:44:51;2.70;;;2.47;;
16862;SDS011;52193;48.216;-1.698;2023-04-02T11:47:20;3.00;;;2.80;;
16862;SDS011;52193;48.216;-1.698;2023-04-02T11:52:34;2.50;;;2.30;;
16862;SDS011;52193;48.216;-1.698;2023-04-02T11:58:07;2.10;;;2.00;;
16862;SDS011;52193;48.216;-1.698;2023-04-02T12:01:06;3.42;;;3.13;;
16862;SDS011;52193;48.216;-1.698;2023-04-02T12:04:09;2.00;;;1.90;;
16862;SDS011;52193;48.216;-1.698;2023-04-02T12:07:16;2.95;;;2.75;;
16862;SDS011;52193;48.216;-1.698;2023-04-02T12:09:59;3.13;;;2.92;;
16862;SDS011;52193;48.216;-1.698;2023-04-02T12:12:32;3.22;;;2.92;;
16862;SDS011;52193;48.216;-1.698;2023-04-02T12:15:02;2.60;;;2.40;;
16862;SDS011;52193;48.216;-1.698;2023-04-02T12:17:34;2.90;;;2.70;;
16862;SDS011;52193;48.216;-1.698;2023-04-02T12:20:12;3.22;;;3.03;;
16862;SDS011;52193;48.216;-1.698;2023-04-02T12:22:46;2.33;;;2.13;;
16862;SDS011;52193;48.216;-1.698;2023-04-02T12:25:20;2.28;;;2.08;;
16862;SDS011;52193;48.216;-1.698;2023-04-02T12:28:02;1.95;;;1.85;;
16862;SDS011;52193;48.216;-1.698;2023-04-02T12:30:30;2.20;;;1.70;;
16862;SDS011;52193;48.216;-1.698;2023-04-02T12:35:55;2.05;;;1.95;;
16862;SDS011;52193;48.216;-1.698;2023-04-02T12:38:24;2.50;;;2.30;;
16862;SDS011;52193;48.216;-1.698;2023-04-02T12:40:52;2.20;;;1.80;;
16862;SDS011;52193;48.216;-1.698;2023-04-02T12:43:23;1.95;;;1.58;;
16862;SDS011;52193;48.216;-1.698;2023-04-02T12:45:52;1.70;;;1.60;;
16862;SDS011;52193;48.216;-1.698;2023-04-02T12:48:19;1.90;;;1.50;;
16862;SDS011;52193;48.216;-1.698;2023-04-02T12:50:47;2.20;;;1.80;;
16862;SDS011;52193;48.216;-1.698;2023-04-02T12:53:20;1.60;;;1.50;;
16862;SDS011;52193;48.216;-1.698;2023-04-02T12:55:48;1.60;;;1.45;;
16862;SDS011;52193;48.216;-1.698;2023-04-02T12:58:27;1.70;;;1.30;;
16862;SDS011;52193;48.216;-1.698;2023-04-02T13:01:08;2.22;;;1.40;;
16862;SDS011;52193;48.216;-1.698;2023-04-02T13:03:37;1.45;;;1.33;;
16862;SDS011;52193;48.216;-1.698;2023-04-02T13:06:10;1.40;;;1.30;;
16862;SDS011;52193;48.216;-1.698;2023-04-02T13:08:47;2.08;;;1.88;;
16862;SDS011;52193;48.216;-1.698;2023-04-02T13:11:14;2.15;;;1.58;;
16862;SDS011;52193;48.216;-1.698;2023-04-02T13:13:42;1.63;;;1.50;;
16862;SDS011;52193;48.216;-1.698;2023-04-02T13:16:24;1.60;;;1.50;;
16862;SDS011;52193;48.216;-1.698;2023-04-02T13:19:07;1.73;;;1.63;;
16862;SDS011;52193;48.216;-1.698;2023-04-02T13:21:36;1.90;;;1.67;;
16862;SDS011;52193;48.216;-1.698;2023-04-02T13:24:09;1.80;;;1.70;;
16862;SDS011;52193;48.216;-1.698;2023-04-02T13:26:41;1.67;;;1.58;;
16862;SDS011;52193;48.216;-1.698;2023-04-02T13:29:15;1.88;;;1.73;;
16862;SDS011;52193;48.216;-1.698;2023-04-02T13:31:45;1.40;;;1.30;;
16862;SDS011;52193;48.216;-1.698;2023-04-02T13:34:12;1.30;;;1.20;;
16862;SDS011;52193;48.216;-1.698;2023-04-02T13:36:39;1.33;;;1.23;;
16862;SDS011;52193;48.216;-1.698;2023-04-02T13:39:07;1.30;;;1.20;;
16862;SDS011;52193;48.216;-1.698;2023-04-02T13:41:35;1.40;;;1.30;;
16862;SDS011;52193;48.216;-1.698;2023-04-02T13:44:05;1.45;;;1.30;;
16862;SDS011;52193;48.216;-1.698;2023-04-02T13:46:33;1.70;;;1.45;;
16862;SDS011;52193;48.216;-1.698;2023-04-02T13:49:00;1.40;;;1.30;;
16862;SDS011;52193;48.216;-1.698;2023-04-02T13:51:30;1.75;;;1.63;;
16862;SDS011;52193;48.216;-1.698;2023-04-02T13:54:01;1.88;;;1.70;;
16862;SDS011;52193;48.216;-1.698;2023-04-02T13:56:32;1.60;;;1.50;;
16862;SDS011;52193;48.216;-1.698;2023-04-02T13:59:00;1.80;;;1.70;;
16862;SDS011;52193;48.216;-1.698;2023-04-02T14:01:27;1.90;;;1.60;;
16862;SDS011;52193;48.216;-1.698;2023-04-02T14:03:54;1.60;;;1.50;;
16862;SDS011;52193;48.216;-1.698;2023-04-02T14:06:23;1.70;;;1.60;;
16862;SDS011;52193;48.216;-1.698;2023-04-02T14:09:03;1.80;;;1.70;;
16862;SDS011;52193;48.216;-1.698;2023-04-02T14:11:37;1.98;;;1.88;;
16862;SDS011;52193;48.216;-1.698;2023-04-02T14:14:18;1.80;;;1.70;;
16862;SDS011;52193;48.216;-1.698;2023-04-02T14:17:03;1.77;;;1.50;;
16862;SDS011;52193;48.216;-1.698;2023-04-02T14:19:43;1.90;;;1.80;;
16862;SDS011;52193;48.216;-1.698;2023-04-02T14:22:23;1.70;;;1.60;;
16862;SDS011;52193;48.216;-1.698;2023-04-02T14:24:58;1.98;;;1.80;;
16862;SDS011;52193;48.216;-1.698;2023-04-02T14:27:37;2.30;;;1.70;;
16862;SDS011;52193;48.216;-1.698;2023-04-02T14:30:12;1.80;;;1.70;;
16862;SDS011;52193;48.216;-1.698;2023-04-02T14:32:46;1.90;;;1.80;;
16862;SDS011;52193;48.216;-1.698;2023-04-02T14:35:23;2.13;;;1.92;;
16862;SDS011;52193;48.216;-1.698;2023-04-02T14:37:58;2.00;;;1.90;;
16862;SDS011;52193;48.216;-1.698;2023-04-02T14:40:33;2.00;;;1.90;;
16862;SDS011;52193;48.216;-1.698;2023-04-02T14:43:06;2.10;;;1.92;;
16862;SDS011;52193;48.216;-1.698;2023-04-02T14:45:40;2.15;;;1.95;;
16862;SDS011;52193;48.216;-1.698;2023-04-02T14:48:19;2.00;;;1.85;;
16862;SDS011;52193;48.216;-1.698;2023-04-02T14:50:57;1.80;;;1.70;;
16862;SDS011;52193;48.216;-1.698;2023-04-02T14:53:28;1.83;;;1.73;;
16862;SDS011;52193;48.216;-1.698;2023-04-02T14:56:01;2.00;;;1.90;;
16862;SDS011;52193;48.216;-1.698;2023-04-02T14:58:35;2.30;;;2.20;;
16862;SDS011;52193;48.216;-1.698;2023-04-02T15:01:08;3.15;;;2.20;;
16862;SDS011;52193;48.216;-1.698;2023-04-02T15:03:39;2.30;;;2.10;;
16862;SDS011;52193;48.216;-1.698;2023-04-02T15:06:11;2.38;;;2.20;;
16862;SDS011;52193;48.216;-1.698;2023-04-02T15:08:43;2.20;;;2.00;;
16862;SDS011;52193;48.216;-1.698;2023-04-02T15:11:14;2.35;;;2.15;;
16862;SDS011;52193;48.216;-1.698;2023-04-02T15:13:48;2.85;;;2.40;;
16862;SDS011;52193;48.216;-1.698;2023-04-02T15:16:20;2.90;;;2.50;;
16862;SDS011;52193;48.216;-1.698;2023-04-02T15:18:51;3.30;;;3.00;;
16862;SDS011;52193;48.216;-1.698;2023-04-02T15:21:27;2.95;;;2.75;;
16862;SDS011;52193;48.216;-1.698;2023-04-02T15:24:15;2.50;;;2.30;;
16862;SDS011;52193;48.216;-1.698;2023-04-02T15:26:50;2.67;;;2.00;;
16862;SDS011;52193;48.216;-1.698;2023-04-02T15:29:27;2.33;;;2.13;;